Metar Cercanos

 

LEPA - Palma De Mallorc, Spain
Distance from station: ONO 38km
Actualización: 16/08/2018 00:00
Few Clouds
Few Clouds
 Viento del ENE
Viento: ENE 4 km/h
Temperatura: 25°C
Rocío: 19°C
Humedad: 69%
Barómetro: 1017 hPa
Clouds: Few Clouds
Visibility: 10 km
Cloud details: Few Clouds 762 m
2018/08/15 22:00 LEPA 152200Z 07002KT 9999 FEW025 25/19 Q1017 NOSIG
LEMH - Mahon/Menorca Is, Spain
Distance from station: ENE 105km
Actualización: 16/08/2018 00:00
Despejado
Despejado
 Viento del NO
Viento: NO 6 km/h
Temperatura: 21°C
Rocío: 17°C
Humedad: 78%
Barómetro: 1017 hPa
Resumen: Despejado
Visibility: greater than 10 km
2018/08/15 22:00 LEMH 152200Z 31003KT CAVOK 21/17 Q1017
 
LEIB - Ibiza/Es Codola, Spain
Distance from station: OSO 165km
Actualización: 16/08/2018 00:00
Despejado
Despejado
 Viento del ESE
Viento: ESE 7 km/h
Temperatura: 26°C
Rocío: 19°C
Humedad: 65%
Barómetro: 1017 hPa
Resumen: Despejado
Visibility: greater than 10 km
2018/08/15 22:00 LEIB 152200Z 12004KT 080V180 CAVOK 26/19 Q1017 NOSIG
LEBL - Barcelona Airpor, Spain
Distance from station: NNO 225km
Actualización: 16/08/2018 00:00
Parcialmente nuboso
Parcialmente nuboso
 Viento del varies
Viento: varies 4 km/h
Temperatura: 26°C
Rocío: 21°C
Humedad: 74%
Barómetro: 1017 hPa
Clouds: Parcialmente nuboso
Visibility: 10 km
Cloud details: Parcialmente nuboso 914 m
2018/08/15 22:00 LEBL 152200Z VRB02KT 9999 SCT030 26/21 Q1017 NOSIG
 
LEVC - Valencia (civ/Mi, Spain
Distance from station: NO 188km
Actualización: 16/08/2018 00:00
Muy nuboso
Muy nuboso
 Viento del ENE
Viento: ENE 6 km/h
Temperatura: 27°C
Indice Calor: 29°C
Rocío: 22°C
Humedad: 74%
Barómetro: 1016 hPa
Clouds: Muy nuboso
Visibility: 10 km
Cloud details: Few Clouds 762 m
Muy nuboso 1524 m
2018/08/15 22:00 LEVC 152200Z 07003KT 050V110 9999 FEW025 BKN050 27/22 Q1016 NOSIG
LEGE - Gerona/Costa Bra, Spain
Distance from station: N 276km
Actualización: 16/08/2018 00:00
Few Clouds
Few Clouds
 Viento del O
Viento: O 7 km/h
Temperatura: 21°C
Rocío: 18°C
Humedad: 83%
Barómetro: 1017 hPa
Clouds: Few Clouds
Visibility: 10 km
Cloud details: Few Clouds 1372 m
2018/08/15 22:00 LEGE 152200Z 28004KT 9999 FEW045 21/18 Q1017
 
LEAL - Alicante/El Alte, Spain
Distance from station: OSO 344km
Actualización: 16/08/2018 00:00
Muy nuboso
Muy nuboso
 Viento del SE
Viento: SE 6 km/h
Temperatura: 26°C
Rocío: 23°C
Humedad: 84%
Barómetro: 1016 hPa
Clouds: Muy nuboso
Visibility: 10 km
Cloud details: Parcialmente nuboso 579 m
Muy nuboso 792 m
2018/08/15 22:00 LEAL 152200Z 13003KT 080V170 9999 SCT019 BKN026 26/23 Q1016 NOSIG
LEAM - Almeria Airport, Spain
Distance from station: SSO 56km
Actualización: 16/08/2018 00:00
Despejado
Despejado
 Viento del E
Viento: E 6 km/h
Temperatura: 27°C
Indice Calor: 29°C
Rocío: 22°C
Humedad: 74%
Barómetro: 1015 hPa
Clouds: Despejado
Visibility: 10 km
2018/08/15 22:00 LEAM 152200Z AUTO 08003KT 9999 NCD 27/22 Q1015
 
LEZG - Zaragoza (mil/Ci, Spain
Distance from station: NO 431km
Actualización: 16/08/2018 00:00
Few Clouds
Few Clouds
 Viento del E
Viento: E 6 km/h
Temperatura: 24°C
Rocío: 13°C
Humedad: 50%
Barómetro: 1016 hPa
Clouds: Few Clouds
Visibility: 10 km
Cloud details: Few Clouds 1219 m
2018/08/15 22:00 LEZG 152200Z 08003KT 9999 FEW040 24/13 Q1016
LEMD - Madrid/Barajas, Spain
Distance from station: ONO 234km
Actualización: 16/08/2018 00:00
Despejado
Despejado
 Viento del NNO
Viento: NNO 7 km/h
Temperatura: 28°C
Rocío: 10°C
Humedad: 32%
Barómetro: 1015 hPa
Resumen: Despejado
Visibility: greater than 10 km
2018/08/15 22:00 LEMD 152200Z 34004KT CAVOK 28/10 Q1015 NOSIG
 
LEGR - Granada Airport, Spain
Distance from station: OSO 62km
Actualización: 16/08/2018 00:00
Despejado
Despejado
 Viento del varies
Viento: varies 2 km/h
Temperatura: 24°C
Rocío: 16°C
Humedad: 61%
Barómetro: 1018 hPa
Clouds: Despejado
Visibility: 10 km
2018/08/15 22:00 LEGR 152200Z AUTO VRB01KT 9999 NCD 24/16 Q1018
LEMG - Malaga (civ/Mil), Spain
Distance from station: OSO 227km
Actualización: 16/08/2018 00:00
Despejado
Despejado
 Viento del SSE
Viento: SSE 9 km/h
Temperatura: 25°C
Rocío: 22°C
Humedad: 83%
Barómetro: 1016 hPa
Resumen: Despejado
Visibility: greater than 10 km
2018/08/15 22:00 LEMG 152200Z 15005KT 120V190 CAVOK 25/22 Q1016 NOSIG
 
LEZL - Sevilla (civ/Mil, Spain
Distance from station: S 318km
Actualización: 16/08/2018 00:00
Despejado
Despejado
 Viento del SO
Viento: SO 13 km/h
Temperatura: 22°C
Rocío: 17°C
Humedad: 73%
Barómetro: 1016 hPa
Resumen: Despejado
Visibility: greater than 10 km
2018/08/15 22:00 LEZL 152200Z 22007KT CAVOK 22/17 Q1016 NOSIG
LEVT - Vitoria, Spain
Distance from station: NO 226km
Actualización: 16/08/2018 00:00
Few Clouds
Few Clouds
 Viento del calm
Viento: Calma
Temperatura: 17°C
Rocío: 16°C
Humedad: 94%
Barómetro: 1019 hPa
Clouds: Few Clouds
Visibility: 10 km
Cloud details: Few Clouds 1067 m
2018/08/15 22:00 LEVT 152200Z 00000KT 9999 FEW035 17/16 Q1019
 
LEBB - Bilbao/Sondica, Spain
Distance from station: NNO 235km
Actualización: 16/08/2018 00:00
Despejado
Despejado
 Viento del calm
Viento: Calma
Temperatura: 20°C
Rocío: 18°C
Humedad: 88%
Barómetro: 1018 hPa
Resumen: Despejado
Visibility: greater than 10 km
2018/08/15 22:00 LEBB 152200Z 00000KT CAVOK 20/18 Q1018 NOSIG
LESO - San Sebastian/Fu, Spain
Distance from station: N 231km
Actualización: 16/08/2018 00:00
Few Clouds
Few Clouds
 Viento del SSO
Viento: SSO 9 km/h
Temperatura: 21°C
Rocío: 19°C
Humedad: 88%
Barómetro: 1017 hPa
Clouds: Few Clouds
Visibility: 10 km
Cloud details: Few Clouds 396 m
2018/08/15 22:00 LESO 152200Z AUTO 21005KT 9999 FEW013/// 21/19 Q1017
 
LEVD - Valladolid(Mil/C, Spain
Distance from station: ONO 239km
Actualización: 15/08/2018 21:30
NOT Current
Despejado
Despejado
 Viento del N
Viento: N 7 km/h
Temperatura: 24°C
Rocío: 4°C
Humedad: 27%
Barómetro: 1017 hPa
Resumen: Despejado
Visibility: greater than 10 km
2018/08/15 19:30 LEVD 151930Z 36004KT CAVOK 24/04 Q1017
LESA - Salamanca (civ/M, Spain
Distance from station: ONO 349km
Actualización: 16/08/2018 00:00
Mist, Parcialmente nuboso
Mist, Parcialmente nuboso
 Viento del calm
Viento: Calma
Temperatura: 18°C
Rocío: 13°C
Humedad: 73%
Barómetro: 1018 hPa
Resumen: Mist
Clouds: Parcialmente nuboso
Visibility: 2 km
2018/08/15 22:00 LESA 152200Z AUTO 00000KT 1700 BR NSC 18/13 Q1018
 
LEXJ - Santander/Paraya, Spain
Distance from station: NNO 247km
Actualización: 16/08/2018 00:00
Muy nuboso
Muy nuboso
 Viento del E
Viento: E 6 km/h
Temperatura: 20°C
Rocío: 19°C
Humedad: 94%
Barómetro: 1017 hPa
Clouds: Muy nuboso
Visibility: 8 km
Cloud details: Muy nuboso 1006 m
2018/08/15 22:00 LEXJ 152200Z AUTO 10003KT 8000 BKN033/// 20/19 Q1017
LEAS - Asturias/Aviles, Spain
Distance from station: NO 214km
Actualización: 16/08/2018 00:00
Muy nuboso
Muy nuboso
 Viento del ESE
Viento: ESE 6 km/h
Temperatura: 19°C
Rocío: 18°C
Humedad: 94%
Barómetro: 1018 hPa
Clouds: Muy nuboso
Visibility: 10 km
Cloud details: Muy nuboso 823 m
2018/08/15 22:00 LEAS 152200Z 11003KT 9999 BKN027 19/18 Q1018 NOSIG
 
LECO - La Coruna/Alvedr, Spain
Distance from station: ONO 222km
Actualización: 16/08/2018 00:00
Despejado
Despejado
 Viento del N
Viento: N 7 km/h
Temperatura: 20°C
Rocío: 17°C
Humedad: 83%
Barómetro: 1017 hPa
Resumen: Despejado
Visibility: greater than 10 km
2018/08/15 22:00 LECO 152200Z 35004KT 310V030 CAVOK 20/17 Q1017 NOSIG
LEVX - Vigo/Peinador, Spain
Distance from station: O 214km
Actualización: 16/08/2018 00:00
Despejado
Despejado
 Viento del NNO
Viento: NNO 6 km/h
Temperatura: 22°C
Rocío: 14°C
Humedad: 61%
Barómetro: 1016 hPa
Resumen: Despejado
Visibility: greater than 10 km
2018/08/15 22:00 LEVX 152200Z 34003KT CAVOK 22/14 Q1016 NOSIG